sensor_id;sensor_type;location;lat;lon;timestamp;P1;durP1;ratioP1;P2;durP2;ratioP2
47966;SDS011;33733;52.456;13.620;2023-04-15T00:01:49;9.63;;;5.57;;
47966;SDS011;33733;52.456;13.620;2023-04-15T00:04:16;7.28;;;3.13;;
47966;SDS011;33733;52.456;13.620;2023-04-15T00:06:48;7.30;;;2.70;;
47966;SDS011;33733;52.456;13.620;2023-04-15T00:09:16;7.72;;;3.50;;
47966;SDS011;33733;52.456;13.620;2023-04-15T00:11:44;6.80;;;3.45;;
47966;SDS011;33733;52.456;13.620;2023-04-15T00:14:12;8.68;;;5.40;;
47966;SDS011;33733;52.456;13.620;2023-04-15T00:16:38;8.13;;;3.40;;
47966;SDS011;33733;52.456;13.620;2023-04-15T00:19:05;7.45;;;3.20;;
47966;SDS011;33733;52.456;13.620;2023-04-15T00:21:31;6.90;;;3.40;;
47966;SDS011;33733;52.456;13.620;2023-04-15T00:23:58;8.80;;;4.03;;
47966;SDS011;33733;52.456;13.620;2023-04-15T00:26:25;9.60;;;4.53;;
47966;SDS011;33733;52.456;13.620;2023-04-15T00:28:52;8.40;;;3.67;;
47966;SDS011;33733;52.456;13.620;2023-04-15T00:31:19;11.15;;;6.70;;
47966;SDS011;33733;52.456;13.620;2023-04-15T00:33:46;9.65;;;5.32;;
47966;SDS011;33733;52.456;13.620;2023-04-15T00:36:13;11.65;;;5.15;;
47966;SDS011;33733;52.456;13.620;2023-04-15T00:38:39;8.45;;;4.60;;
47966;SDS011;33733;52.456;13.620;2023-04-15T00:41:06;10.82;;;6.35;;
47966;SDS011;33733;52.456;13.620;2023-04-15T00:43:34;14.13;;;6.80;;
47966;SDS011;33733;52.456;13.620;2023-04-15T00:46:00;10.70;;;4.75;;
47966;SDS011;33733;52.456;13.620;2023-04-15T00:48:30;9.90;;;5.47;;
47966;SDS011;33733;52.456;13.620;2023-04-15T00:50:57;11.82;;;4.35;;
47966;SDS011;33733;52.456;13.620;2023-04-15T00:53:24;9.25;;;4.13;;
47966;SDS011;33733;52.456;13.620;2023-04-15T00:55:50;10.75;;;5.28;;
47966;SDS011;33733;52.456;13.620;2023-04-15T00:58:17;12.60;;;5.80;;
47966;SDS011;33733;52.456;13.620;2023-04-15T01:00:43;8.60;;;4.50;;
47966;SDS011;33733;52.456;13.620;2023-04-15T01:03:10;10.75;;;6.63;;
47966;SDS011;33733;52.456;13.620;2023-04-15T01:05:37;10.85;;;3.97;;
47966;SDS011;33733;52.456;13.620;2023-04-15T01:08:04;8.70;;;4.45;;
47966;SDS011;33733;52.456;13.620;2023-04-15T01:10:31;9.73;;;6.18;;
47966;SDS011;33733;52.456;13.620;2023-04-15T01:12:58;9.30;;;3.75;;
47966;SDS011;33733;52.456;13.620;2023-04-15T01:15:25;10.27;;;4.50;;
47966;SDS011;33733;52.456;13.620;2023-04-15T01:17:52;9.80;;;4.80;;
47966;SDS011;33733;52.456;13.620;2023-04-15T01:20:19;11.63;;;6.95;;
47966;SDS011;33733;52.456;13.620;2023-04-15T01:22:47;9.52;;;4.65;;
47966;SDS011;33733;52.456;13.620;2023-04-15T01:25:17;8.90;;;3.88;;
47966;SDS011;33733;52.456;13.620;2023-04-15T01:27:45;11.30;;;6.43;;
47966;SDS011;33733;52.456;13.620;2023-04-15T01:30:12;12.20;;;5.30;;
47966;SDS011;33733;52.456;13.620;2023-04-15T01:32:39;10.75;;;6.45;;
47966;SDS011;33733;52.456;13.620;2023-04-15T01:35:06;9.35;;;3.83;;
47966;SDS011;33733;52.456;13.620;2023-04-15T01:37:32;9.82;;;4.88;;
47966;SDS011;33733;52.456;13.620;2023-04-15T01:39:59;9.73;;;4.65;;
47966;SDS011;33733;52.456;13.620;2023-04-15T01:42:26;8.88;;;3.42;;
47966;SDS011;33733;52.456;13.620;2023-04-15T01:44:53;9.98;;;4.57;;
47966;SDS011;33733;52.456;13.620;2023-04-15T01:47:20;8.43;;;4.55;;
47966;SDS011;33733;52.456;13.620;2023-04-15T01:49:47;9.07;;;4.00;;
47966;SDS011;33733;52.456;13.620;2023-04-15T01:52:13;9.88;;;4.18;;
47966;SDS011;33733;52.456;13.620;2023-04-15T01:54:40;11.50;;;6.13;;
47966;SDS011;33733;52.456;13.620;2023-04-15T01:57:07;9.75;;;4.30;;
47966;SDS011;33733;52.456;13.620;2023-04-15T01:59:34;10.50;;;4.80;;
47966;SDS011;33733;52.456;13.620;2023-04-15T02:02:01;9.00;;;4.20;;
47966;SDS011;33733;52.456;13.620;2023-04-15T02:04:28;10.27;;;5.32;;
47966;SDS011;33733;52.456;13.620;2023-04-15T02:06:58;10.02;;;6.47;;
47966;SDS011;33733;52.456;13.620;2023-04-15T02:09:24;8.27;;;4.00;;
47966;SDS011;33733;52.456;13.620;2023-04-15T02:11:51;10.25;;;4.07;;
47966;SDS011;33733;52.456;13.620;2023-04-15T02:14:19;12.73;;;6.55;;
47966;SDS011;33733;52.456;13.620;2023-04-15T02:16:46;10.77;;;5.53;;
47966;SDS011;33733;52.456;13.620;2023-04-15T02:19:14;8.10;;;3.75;;
47966;SDS011;33733;52.456;13.620;2023-04-15T02:21:41;7.75;;;4.05;;
47966;SDS011;33733;52.456;13.620;2023-04-15T02:24:07;11.70;;;5.18;;
47966;SDS011;33733;52.456;13.620;2023-04-15T02:26:34;9.90;;;3.55;;
47966;SDS011;33733;52.456;13.620;2023-04-15T02:29:00;14.65;;;7.72;;
47966;SDS011;33733;52.456;13.620;2023-04-15T02:31:27;10.13;;;6.15;;
47966;SDS011;33733;52.456;13.620;2023-04-15T02:33:54;10.02;;;4.55;;
47966;SDS011;33733;52.456;13.620;2023-04-15T02:36:20;7.43;;;3.00;;
47966;SDS011;33733;52.456;13.620;2023-04-15T02:38:48;8.73;;;3.65;;
47966;SDS011;33733;52.456;13.620;2023-04-15T02:41:16;8.57;;;4.90;;
47966;SDS011;33733;52.456;13.620;2023-04-15T02:43:44;13.85;;;6.82;;
47966;SDS011;33733;52.456;13.620;2023-04-15T02:46:12;8.38;;;6.03;;
47966;SDS011;33733;52.456;13.620;2023-04-15T02:48:40;11.07;;;5.70;;
47966;SDS011;33733;52.456;13.620;2023-04-15T02:51:14;12.32;;;7.13;;
47966;SDS011;33733;52.456;13.620;2023-04-15T02:53:42;11.73;;;6.55;;
47966;SDS011;33733;52.456;13.620;2023-04-15T02:56:08;9.20;;;4.07;;
47966;SDS011;33733;52.456;13.620;2023-04-15T02:58:35;8.57;;;4.10;;
47966;SDS011;33733;52.456;13.620;2023-04-15T03:01:02;6.50;;;3.30;;
47966;SDS011;33733;52.456;13.620;2023-04-15T03:03:28;8.60;;;4.18;;
47966;SDS011;33733;52.456;13.620;2023-04-15T03:05:56;8.98;;;5.78;;
47966;SDS011;33733;52.456;13.620;2023-04-15T03:08:22;9.98;;;4.15;;
47966;SDS011;33733;52.456;13.620;2023-04-15T03:10:49;8.05;;;4.72;;
47966;SDS011;33733;52.456;13.620;2023-04-15T03:13:18;9.20;;;4.22;;
47966;SDS011;33733;52.456;13.620;2023-04-15T03:15:46;10.15;;;6.05;;
47966;SDS011;33733;52.456;13.620;2023-04-15T03:18:13;9.13;;;3.90;;
47966;SDS011;33733;52.456;13.620;2023-04-15T03:20:40;8.85;;;6.07;;
47966;SDS011;33733;52.456;13.620;2023-04-15T03:23:07;9.30;;;4.20;;
47966;SDS011;33733;52.456;13.620;2023-04-15T03:25:33;7.60;;;3.70;;
47966;SDS011;33733;52.456;13.620;2023-04-15T03:28:04;8.02;;;3.80;;
47966;SDS011;33733;52.456;13.620;2023-04-15T03:30:31;8.07;;;3.30;;
47966;SDS011;33733;52.456;13.620;2023-04-15T03:32:58;7.75;;;3.90;;
47966;SDS011;33733;52.456;13.620;2023-04-15T03:35:25;6.25;;;3.13;;
47966;SDS011;33733;52.456;13.620;2023-04-15T03:37:51;11.60;;;4.00;;
47966;SDS011;33733;52.456;13.620;2023-04-15T03:40:19;8.25;;;4.28;;
47966;SDS011;33733;52.456;13.620;2023-04-15T03:42:46;10.18;;;5.38;;
47966;SDS011;33733;52.456;13.620;2023-04-15T03:45:13;16.27;;;4.10;;
47966;SDS011;33733;52.456;13.620;2023-04-15T03:47:39;7.57;;;3.45;;
47966;SDS011;33733;52.456;13.620;2023-04-15T03:50:06;10.15;;;4.05;;
47966;SDS011;33733;52.456;13.620;2023-04-15T03:52:33;9.65;;;4.65;;
47966;SDS011;33733;52.456;13.620;2023-04-15T03:55:00;9.07;;;4.57;;
47966;SDS011;33733;52.456;13.620;2023-04-15T03:57:26;7.70;;;3.03;;
47966;SDS011;33733;52.456;13.620;2023-04-15T03:59:53;8.68;;;5.53;;
47966;SDS011;33733;52.456;13.620;2023-04-15T04:02:19;12.77;;;4.00;;
47966;SDS011;33733;52.456;13.620;2023-04-15T04:04:46;10.88;;;3.75;;
47966;SDS011;33733;52.456;13.620;2023-04-15T04:07:14;8.35;;;4.22;;
47966;SDS011;33733;52.456;13.620;2023-04-15T04:09:41;8.00;;;3.95;;
47966;SDS011;33733;52.456;13.620;2023-04-15T04:12:08;14.32;;;4.70;;
47966;SDS011;33733;52.456;13.620;2023-04-15T04:14:34;8.02;;;3.45;;
47966;SDS011;33733;52.456;13.620;2023-04-15T04:17:01;7.82;;;3.15;;
47966;SDS011;33733;52.456;13.620;2023-04-15T04:19:28;6.43;;;3.42;;
47966;SDS011;33733;52.456;13.620;2023-04-15T04:21:55;7.18;;;3.25;;
47966;SDS011;33733;52.456;13.620;2023-04-15T04:24:22;7.03;;;3.60;;
47966;SDS011;33733;52.456;13.620;2023-04-15T04:26:48;8.15;;;3.60;;
47966;SDS011;33733;52.456;13.620;2023-04-15T04:29:15;9.88;;;4.28;;
47966;SDS011;33733;52.456;13.620;2023-04-15T04:31:42;7.35;;;3.80;;
47966;SDS011;33733;52.456;13.620;2023-04-15T04:34:08;10.02;;;3.58;;
47966;SDS011;33733;52.456;13.620;2023-04-15T04:36:35;7.78;;;4.00;;
47966;SDS011;33733;52.456;13.620;2023-04-15T04:39:01;7.78;;;5.05;;
47966;SDS011;33733;52.456;13.620;2023-04-15T04:41:28;9.65;;;3.42;;
47966;SDS011;33733;52.456;13.620;2023-04-15T04:43:55;7.97;;;3.33;;
47966;SDS011;33733;52.456;13.620;2023-04-15T04:46:21;7.63;;;2.47;;
47966;SDS011;33733;52.456;13.620;2023-04-15T04:48:49;8.82;;;4.35;;
47966;SDS011;33733;52.456;13.620;2023-04-15T04:51:15;7.70;;;4.82;;
47966;SDS011;33733;52.456;13.620;2023-04-15T04:53:42;6.70;;;4.20;;
47966;SDS011;33733;52.456;13.620;2023-04-15T04:56:08;6.80;;;3.08;;
47966;SDS011;33733;52.456;13.620;2023-04-15T04:58:35;8.20;;;4.85;;
47966;SDS011;33733;52.456;13.620;2023-04-15T05:01:01;7.45;;;3.03;;
47966;SDS011;33733;52.456;13.620;2023-04-15T05:03:28;6.13;;;2.42;;
47966;SDS011;33733;52.456;13.620;2023-04-15T05:05:55;8.07;;;2.55;;
47966;SDS011;33733;52.456;13.620;2023-04-15T05:08:22;8.30;;;3.85;;
47966;SDS011;33733;52.456;13.620;2023-04-15T05:10:48;6.75;;;3.15;;
47966;SDS011;33733;52.456;13.620;2023-04-15T05:13:15;7.00;;;2.60;;
47966;SDS011;33733;52.456;13.620;2023-04-15T05:15:41;6.47;;;2.63;;
47966;SDS011;33733;52.456;13.620;2023-04-15T05:18:08;8.70;;;3.35;;
47966;SDS011;33733;52.456;13.620;2023-04-15T05:20:35;6.38;;;3.92;;
47966;SDS011;33733;52.456;13.620;2023-04-15T05:23:01;7.65;;;3.63;;
47966;SDS011;33733;52.456;13.620;2023-04-15T05:25:28;8.65;;;5.50;;
47966;SDS011;33733;52.456;13.620;2023-04-15T05:27:54;6.72;;;2.83;;
47966;SDS011;33733;52.456;13.620;2023-04-15T05:30:21;6.70;;;2.78;;
47966;SDS011;33733;52.456;13.620;2023-04-15T05:32:48;7.68;;;3.92;;
47966;SDS011;33733;52.456;13.620;2023-04-15T05:35:15;5.93;;;4.05;;
47966;SDS011;33733;52.456;13.620;2023-04-15T05:37:41;6.40;;;2.40;;
47966;SDS011;33733;52.456;13.620;2023-04-15T05:40:08;3.65;;;1.58;;
47966;SDS011;33733;52.456;13.620;2023-04-15T05:42:36;6.60;;;4.38;;
47966;SDS011;33733;52.456;13.620;2023-04-15T05:45:02;5.10;;;2.05;;
47966;SDS011;33733;52.456;13.620;2023-04-15T05:47:30;5.70;;;2.30;;
47966;SDS011;33733;52.456;13.620;2023-04-15T05:49:57;9.30;;;4.97;;
47966;SDS011;33733;52.456;13.620;2023-04-15T05:52:24;5.53;;;2.50;;
47966;SDS011;33733;52.456;13.620;2023-04-15T05:54:51;6.90;;;4.35;;
47966;SDS011;33733;52.456;13.620;2023-04-15T05:57:18;7.20;;;2.72;;
47966;SDS011;33733;52.456;13.620;2023-04-15T05:59:44;6.32;;;2.70;;
47966;SDS011;33733;52.456;13.620;2023-04-15T06:02:11;8.55;;;2.70;;
47966;SDS011;33733;52.456;13.620;2023-04-15T06:04:38;8.68;;;3.45;;
47966;SDS011;33733;52.456;13.620;2023-04-15T06:07:05;5.32;;;2.63;;
47966;SDS011;33733;52.456;13.620;2023-04-15T06:09:32;6.97;;;2.45;;
47966;SDS011;33733;52.456;13.620;2023-04-15T06:11:58;4.72;;;2.78;;
47966;SDS011;33733;52.456;13.620;2023-04-15T06:14:26;6.22;;;3.00;;
47966;SDS011;33733;52.456;13.620;2023-04-15T06:16:53;3.35;;;1.25;;
47966;SDS011;33733;52.456;13.620;2023-04-15T06:19:20;4.90;;;2.28;;
47966;SDS011;33733;52.456;13.620;2023-04-15T06:21:47;5.32;;;2.95;;
47966;SDS011;33733;52.456;13.620;2023-04-15T06:24:14;5.63;;;2.60;;
47966;SDS011;33733;52.456;13.620;2023-04-15T06:26:40;6.90;;;4.15;;
47966;SDS011;33733;52.456;13.620;2023-04-15T06:29:07;5.35;;;3.03;;
47966;SDS011;33733;52.456;13.620;2023-04-15T06:31:34;6.78;;;3.95;;
47966;SDS011;33733;52.456;13.620;2023-04-15T06:34:01;7.38;;;2.63;;
47966;SDS011;33733;52.456;13.620;2023-04-15T06:36:27;5.47;;;2.08;;
47966;SDS011;33733;52.456;13.620;2023-04-15T06:38:54;5.95;;;2.30;;
47966;SDS011;33733;52.456;13.620;2023-04-15T06:41:22;7.78;;;2.90;;
47966;SDS011;33733;52.456;13.620;2023-04-15T06:43:48;5.03;;;2.60;;
47966;SDS011;33733;52.456;13.620;2023-04-15T06:46:15;6.80;;;4.47;;
47966;SDS011;33733;52.456;13.620;2023-04-15T06:48:42;6.72;;;2.83;;
47966;SDS011;33733;52.456;13.620;2023-04-15T06:51:09;4.82;;;2.08;;
47966;SDS011;33733;52.456;13.620;2023-04-15T06:53:36;6.63;;;3.05;;
47966;SDS011;33733;52.456;13.620;2023-04-15T06:56:07;5.68;;;2.67;;
47966;SDS011;33733;52.456;13.620;2023-04-15T06:58:34;6.03;;;3.13;;
47966;SDS011;33733;52.456;13.620;2023-04-15T07:01:01;5.50;;;2.25;;
47966;SDS011;33733;52.456;13.620;2023-04-15T07:03:29;6.28;;;3.03;;
47966;SDS011;33733;52.456;13.620;2023-04-15T07:05:58;6.00;;;2.55;;
47966;SDS011;33733;52.456;13.620;2023-04-15T07:08:25;4.80;;;2.22;;
47966;SDS011;33733;52.456;13.620;2023-04-15T07:10:51;5.28;;;1.80;;
47966;SDS011;33733;52.456;13.620;2023-04-15T07:13:19;7.88;;;4.28;;
47966;SDS011;33733;52.456;13.620;2023-04-15T07:15:45;7.10;;;3.03;;
47966;SDS011;33733;52.456;13.620;2023-04-15T07:18:12;6.57;;;2.83;;
47966;SDS011;33733;52.456;13.620;2023-04-15T07:20:39;4.85;;;1.95;;
47966;SDS011;33733;52.456;13.620;2023-04-15T07:23:06;9.52;;;3.03;;
47966;SDS011;33733;52.456;13.620;2023-04-15T07:25:33;6.30;;;2.30;;
47966;SDS011;33733;52.456;13.620;2023-04-15T07:28:00;6.18;;;3.58;;
47966;SDS011;33733;52.456;13.620;2023-04-15T07:30:27;10.15;;;3.83;;
47966;SDS011;33733;52.456;13.620;2023-04-15T07:32:54;4.90;;;1.73;;
47966;SDS011;33733;52.456;13.620;2023-04-15T07:35:21;5.35;;;3.22;;
47966;SDS011;33733;52.456;13.620;2023-04-15T07:37:48;7.90;;;2.85;;
47966;SDS011;33733;52.456;13.620;2023-04-15T07:40:15;7.18;;;4.70;;
47966;SDS011;33733;52.456;13.620;2023-04-15T07:42:42;6.55;;;2.35;;
47966;SDS011;33733;52.456;13.620;2023-04-15T07:45:09;7.85;;;3.85;;
47966;SDS011;33733;52.456;13.620;2023-04-15T07:47:36;5.15;;;3.08;;
47966;SDS011;33733;52.456;13.620;2023-04-15T07:50:03;6.10;;;2.90;;
47966;SDS011;33733;52.456;13.620;2023-04-15T07:52:30;5.95;;;3.60;;
47966;SDS011;33733;52.456;13.620;2023-04-15T07:55:00;7.55;;;4.38;;
47966;SDS011;33733;52.456;13.620;2023-04-15T07:57:27;6.00;;;2.10;;
47966;SDS011;33733;52.456;13.620;2023-04-15T07:59:53;5.63;;;3.40;;
47966;SDS011;33733;52.456;13.620;2023-04-15T08:02:20;10.48;;;3.42;;
47966;SDS011;33733;52.456;13.620;2023-04-15T08:04:47;6.60;;;2.70;;
47966;SDS011;33733;52.456;13.620;2023-04-15T08:07:14;4.10;;;1.83;;
47966;SDS011;33733;52.456;13.620;2023-04-15T08:09:41;5.38;;;1.92;;
47966;SDS011;33733;52.456;13.620;2023-04-15T08:12:08;5.40;;;2.28;;
47966;SDS011;33733;52.456;13.620;2023-04-15T08:14:38;7.10;;;4.32;;
47966;SDS011;33733;52.456;13.620;2023-04-15T08:17:05;9.40;;;3.95;;
47966;SDS011;33733;52.456;13.620;2023-04-15T08:19:32;6.13;;;2.65;;
47966;SDS011;33733;52.456;13.620;2023-04-15T08:21:59;6.82;;;3.20;;
47966;SDS011;33733;52.456;13.620;2023-04-15T08:24:25;4.40;;;1.60;;
47966;SDS011;33733;52.456;13.620;2023-04-15T08:26:52;5.65;;;2.72;;
47966;SDS011;33733;52.456;13.620;2023-04-15T08:29:19;6.10;;;2.80;;
47966;SDS011;33733;52.456;13.620;2023-04-15T08:31:46;6.63;;;4.15;;
47966;SDS011;33733;52.456;13.620;2023-04-15T08:34:13;4.35;;;1.60;;
47966;SDS011;33733;52.456;13.620;2023-04-15T08:36:41;5.15;;;2.17;;
47966;SDS011;33733;52.456;13.620;2023-04-15T08:39:08;5.78;;;2.45;;
47966;SDS011;33733;52.456;13.620;2023-04-15T08:41:39;7.05;;;4.50;;
47966;SDS011;33733;52.456;13.620;2023-04-15T08:44:06;5.10;;;2.45;;
47966;SDS011;33733;52.456;13.620;2023-04-15T08:46:33;6.53;;;3.30;;
47966;SDS011;33733;52.456;13.620;2023-04-15T08:49:02;8.32;;;4.28;;
47966;SDS011;33733;52.456;13.620;2023-04-15T08:51:30;10.50;;;6.00;;
47966;SDS011;33733;52.456;13.620;2023-04-15T08:53:57;6.30;;;2.42;;
47966;SDS011;33733;52.456;13.620;2023-04-15T08:56:25;6.38;;;3.28;;
47966;SDS011;33733;52.456;13.620;2023-04-15T08:58:53;6.85;;;2.65;;
47966;SDS011;33733;52.456;13.620;2023-04-15T09:01:20;8.23;;;3.30;;
47966;SDS011;33733;52.456;13.620;2023-04-15T09:03:48;5.40;;;2.05;;
47966;SDS011;33733;52.456;13.620;2023-04-15T09:06:16;7.43;;;3.25;;
47966;SDS011;33733;52.456;13.620;2023-04-15T09:08:43;6.35;;;3.90;;
47966;SDS011;33733;52.456;13.620;2023-04-15T09:11:10;5.38;;;2.05;;
47966;SDS011;33733;52.456;13.620;2023-04-15T09:13:37;8.55;;;3.28;;
47966;SDS011;33733;52.456;13.620;2023-04-15T09:16:05;5.43;;;2.47;;
47966;SDS011;33733;52.456;13.620;2023-04-15T09:18:33;5.88;;;2.35;;
47966;SDS011;33733;52.456;13.620;2023-04-15T09:21:10;7.38;;;3.75;;
47966;SDS011;33733;52.456;13.620;2023-04-15T09:23:39;7.03;;;3.47;;
47966;SDS011;33733;52.456;13.620;2023-04-15T09:26:07;6.18;;;4.10;;
47966;SDS011;33733;52.456;13.620;2023-04-15T09:28:40;6.65;;;2.55;;
47966;SDS011;33733;52.456;13.620;2023-04-15T09:31:07;6.57;;;2.72;;
47966;SDS011;33733;52.456;13.620;2023-04-15T09:33:35;5.75;;;2.28;;
47966;SDS011;33733;52.456;13.620;2023-04-15T09:36:19;7.10;;;3.03;;
47966;SDS011;33733;52.456;13.620;2023-04-15T09:38:56;6.75;;;2.47;;
47966;SDS011;33733;52.456;13.620;2023-04-15T09:41:25;5.80;;;2.15;;
47966;SDS011;33733;52.456;13.620;2023-04-15T09:43:52;9.80;;;4.47;;
47966;SDS011;33733;52.456;13.620;2023-04-15T09:46:18;7.32;;;3.53;;
47966;SDS011;33733;52.456;13.620;2023-04-15T09:48:46;7.13;;;3.35;;
47966;SDS011;33733;52.456;13.620;2023-04-15T09:51:12;6.93;;;3.08;;
47966;SDS011;33733;52.456;13.620;2023-04-15T09:53:39;5.97;;;2.13;;
47966;SDS011;33733;52.456;13.620;2023-04-15T09:56:06;7.28;;;4.35;;
47966;SDS011;33733;52.456;13.620;2023-04-15T09:58:34;4.63;;;1.80;;
47966;SDS011;33733;52.456;13.620;2023-04-15T10:01:02;5.00;;;2.55;;
47966;SDS011;33733;52.456;13.620;2023-04-15T10:03:32;6.10;;;2.78;;
47966;SDS011;33733;52.456;13.620;2023-04-15T10:06:01;5.00;;;1.80;;
47966;SDS011;33733;52.456;13.620;2023-04-15T10:08:29;6.03;;;2.42;;
47966;SDS011;33733;52.456;13.620;2023-04-15T10:10:58;4.63;;;2.38;;
47966;SDS011;33733;52.456;13.620;2023-04-15T10:13:28;4.30;;;1.83;;
47966;SDS011;33733;52.456;13.620;2023-04-15T10:15:59;5.10;;;2.30;;
47966;SDS011;33733;52.456;13.620;2023-04-15T10:18:33;6.05;;;2.28;;
47966;SDS011;33733;52.456;13.620;2023-04-15T10:21:01;6.80;;;2.55;;
47966;SDS011;33733;52.456;13.620;2023-04-15T10:23:27;11.48;;;4.32;;
47966;SDS011;33733;52.456;13.620;2023-04-15T10:25:55;4.05;;;1.48;;
47966;SDS011;33733;52.456;13.620;2023-04-15T10:28:22;5.40;;;2.55;;
47966;SDS011;33733;52.456;13.620;2023-04-15T10:30:50;3.75;;;1.40;;
47966;SDS011;33733;52.456;13.620;2023-04-15T10:33:22;4.65;;;1.40;;
47966;SDS011;33733;52.456;13.620;2023-04-15T10:35:50;7.97;;;4.00;;
47966;SDS011;33733;52.456;13.620;2023-04-15T10:43:44;5.13;;;2.28;;
47966;SDS011;33733;52.456;13.620;2023-04-15T10:46:11;6.18;;;3.42;;
47966;SDS011;33733;52.456;13.620;2023-04-15T10:48:38;4.90;;;1.85;;
47966;SDS011;33733;52.456;13.620;2023-04-15T10:51:05;4.95;;;2.17;;
47966;SDS011;33733;52.456;13.620;2023-04-15T10:56:03;8.40;;;2.45;;
47966;SDS011;33733;52.456;13.620;2023-04-15T10:58:39;5.85;;;3.60;;
47966;SDS011;33733;52.456;13.620;2023-04-15T11:01:07;5.32;;;2.63;;
47966;SDS011;33733;52.456;13.620;2023-04-15T11:03:37;7.00;;;4.43;;
47966;SDS011;33733;52.456;13.620;2023-04-15T11:06:06;3.85;;;1.48;;
47966;SDS011;33733;52.456;13.620;2023-04-15T11:11:19;5.68;;;3.00;;
47966;SDS011;33733;52.456;13.620;2023-04-15T11:13:47;4.60;;;1.92;;
47966;SDS011;33733;52.456;13.620;2023-04-15T11:16:15;6.65;;;3.22;;
47966;SDS011;33733;52.456;13.620;2023-04-15T11:18:42;5.50;;;2.75;;
47966;SDS011;33733;52.456;13.620;2023-04-15T11:21:19;6.10;;;3.17;;
47966;SDS011;33733;52.456;13.620;2023-04-15T11:23:50;6.32;;;2.22;;
47966;SDS011;33733;52.456;13.620;2023-04-15T11:26:17;6.43;;;1.83;;
47966;SDS011;33733;52.456;13.620;2023-04-15T11:28:44;6.22;;;3.63;;
47966;SDS011;33733;52.456;13.620;2023-04-15T11:31:15;7.35;;;2.83;;
47966;SDS011;33733;52.456;13.620;2023-04-15T11:33:44;4.50;;;1.75;;
47966;SDS011;33733;52.456;13.620;2023-04-15T11:36:11;6.13;;;3.38;;
47966;SDS011;33733;52.456;13.620;2023-04-15T11:38:45;6.57;;;3.50;;
47966;SDS011;33733;52.456;13.620;2023-04-15T11:43:45;5.03;;;3.20;;
47966;SDS011;33733;52.456;13.620;2023-04-15T11:46:12;4.35;;;1.52;;
47966;SDS011;33733;52.456;13.620;2023-04-15T11:48:41;4.53;;;1.63;;
47966;SDS011;33733;52.456;13.620;2023-04-15T11:51:09;6.05;;;3.15;;
47966;SDS011;33733;52.456;13.620;2023-04-15T11:53:44;4.82;;;2.90;;
47966;SDS011;33733;52.456;13.620;2023-04-15T11:56:19;4.25;;;1.65;;
47966;SDS011;33733;52.456;13.620;2023-04-15T11:58:47;5.13;;;2.00;;
47966;SDS011;33733;52.456;13.620;2023-04-15T12:01:16;6.07;;;3.65;;
47966;SDS011;33733;52.456;13.620;2023-04-15T12:03:46;5.43;;;3.15;;
47966;SDS011;33733;52.456;13.620;2023-04-15T12:06:18;5.40;;;2.17;;
47966;SDS011;33733;52.456;13.620;2023-04-15T12:08:54;5.85;;;3.03;;
47966;SDS011;33733;52.456;13.620;2023-04-15T12:13:54;5.22;;;2.10;;
47966;SDS011;33733;52.456;13.620;2023-04-15T12:16:26;3.72;;;1.35;;
47966;SDS011;33733;52.456;13.620;2023-04-15T12:18:54;5.15;;;2.13;;
47966;SDS011;33733;52.456;13.620;2023-04-15T12:21:22;5.07;;;2.95;;
47966;SDS011;33733;52.456;13.620;2023-04-15T12:23:51;3.80;;;1.25;;
47966;SDS011;33733;52.456;13.620;2023-04-15T12:26:27;5.45;;;2.55;;
47966;SDS011;33733;52.456;13.620;2023-04-15T12:29:07;6.60;;;1.92;;
47966;SDS011;33733;52.456;13.620;2023-04-15T12:31:34;6.28;;;2.55;;
47966;SDS011;33733;52.456;13.620;2023-04-15T12:34:06;6.38;;;3.88;;
47966;SDS011;33733;52.456;13.620;2023-04-15T12:36:36;4.32;;;1.67;;
47966;SDS011;33733;52.456;13.620;2023-04-15T12:39:03;5.50;;;3.03;;
47966;SDS011;33733;52.456;13.620;2023-04-15T12:41:30;5.50;;;3.40;;
47966;SDS011;33733;52.456;13.620;2023-04-15T12:43:57;6.03;;;3.22;;
47966;SDS011;33733;52.456;13.620;2023-04-15T12:46:24;4.85;;;1.77;;
47966;SDS011;33733;52.456;13.620;2023-04-15T12:48:52;4.45;;;1.50;;
47966;SDS011;33733;52.456;13.620;2023-04-15T12:51:19;6.32;;;2.22;;
47966;SDS011;33733;52.456;13.620;2023-04-15T12:53:49;4.63;;;2.17;;
47966;SDS011;33733;52.456;13.620;2023-04-15T12:56:16;5.07;;;2.08;;
47966;SDS011;33733;52.456;13.620;2023-04-15T12:58:43;4.93;;;2.80;;
47966;SDS011;33733;52.456;13.620;2023-04-15T13:01:09;4.57;;;1.73;;
47966;SDS011;33733;52.456;13.620;2023-04-15T13:03:36;5.70;;;2.15;;
47966;SDS011;33733;52.456;13.620;2023-04-15T13:06:03;5.15;;;1.77;;
47966;SDS011;33733;52.456;13.620;2023-04-15T13:08:31;4.55;;;1.73;;
47966;SDS011;33733;52.456;13.620;2023-04-15T13:10:58;3.35;;;1.10;;
47966;SDS011;33733;52.456;13.620;2023-04-15T13:13:24;4.88;;;1.80;;
47966;SDS011;33733;52.456;13.620;2023-04-15T13:15:51;4.50;;;2.38;;
47966;SDS011;33733;52.456;13.620;2023-04-15T13:18:18;6.13;;;3.40;;
47966;SDS011;33733;52.456;13.620;2023-04-15T13:20:45;4.90;;;1.67;;
47966;SDS011;33733;52.456;13.620;2023-04-15T13:23:11;4.95;;;1.77;;
47966;SDS011;33733;52.456;13.620;2023-04-15T13:25:38;4.90;;;2.60;;
47966;SDS011;33733;52.456;13.620;2023-04-15T13:28:05;4.07;;;1.20;;
47966;SDS011;33733;52.456;13.620;2023-04-15T13:30:31;5.07;;;2.42;;
47966;SDS011;33733;52.456;13.620;2023-04-15T13:32:58;5.07;;;1.63;;
47966;SDS011;33733;52.456;13.620;2023-04-15T13:35:24;5.15;;;1.55;;
47966;SDS011;33733;52.456;13.620;2023-04-15T13:37:52;4.18;;;1.30;;
47966;SDS011;33733;52.456;13.620;2023-04-15T13:40:19;3.95;;;1.85;;
47966;SDS011;33733;52.456;13.620;2023-04-15T13:42:46;3.92;;;1.45;;
47966;SDS011;33733;52.456;13.620;2023-04-15T13:45:12;3.50;;;1.27;;
47966;SDS011;33733;52.456;13.620;2023-04-15T13:47:39;4.47;;;2.42;;
47966;SDS011;33733;52.456;13.620;2023-04-15T13:50:06;3.80;;;1.27;;
47966;SDS011;33733;52.456;13.620;2023-04-15T13:52:36;3.88;;;1.15;;
47966;SDS011;33733;52.456;13.620;2023-04-15T13:55:02;5.10;;;1.70;;
47966;SDS011;33733;52.456;13.620;2023-04-15T13:57:43;3.38;;;1.08;;
47966;SDS011;33733;52.456;13.620;2023-04-15T14:00:11;5.05;;;1.63;;
47966;SDS011;33733;52.456;13.620;2023-04-15T14:02:38;4.65;;;1.58;;
47966;SDS011;33733;52.456;13.620;2023-04-15T14:05:05;3.78;;;1.50;;
47966;SDS011;33733;52.456;13.620;2023-04-15T14:07:32;4.35;;;2.30;;
47966;SDS011;33733;52.456;13.620;2023-04-15T14:09:59;4.78;;;1.67;;
47966;SDS011;33733;52.456;13.620;2023-04-15T14:12:26;4.95;;;2.50;;
47966;SDS011;33733;52.456;13.620;2023-04-15T14:14:52;3.40;;;1.48;;
47966;SDS011;33733;52.456;13.620;2023-04-15T14:17:19;4.40;;;1.40;;
47966;SDS011;33733;52.456;13.620;2023-04-15T14:19:45;4.57;;;1.27;;
47966;SDS011;33733;52.456;13.620;2023-04-15T14:22:12;3.70;;;1.38;;
47966;SDS011;33733;52.456;13.620;2023-04-15T14:24:39;4.00;;;1.27;;
47966;SDS011;33733;52.456;13.620;2023-04-15T14:27:05;4.40;;;1.77;;
47966;SDS011;33733;52.456;13.620;2023-04-15T14:29:33;3.50;;;1.08;;
47966;SDS011;33733;52.456;13.620;2023-04-15T14:32:00;4.18;;;1.48;;
47966;SDS011;33733;52.456;13.620;2023-04-15T14:34:37;3.83;;;1.20;;
47966;SDS011;33733;52.456;13.620;2023-04-15T14:37:04;3.90;;;2.10;;
47966;SDS011;33733;52.456;13.620;2023-04-15T14:39:31;3.50;;;1.30;;
47966;SDS011;33733;52.456;13.620;2023-04-15T14:41:57;3.53;;;1.42;;
47966;SDS011;33733;52.456;13.620;2023-04-15T14:44:24;4.10;;;1.30;;
47966;SDS011;33733;52.456;13.620;2023-04-15T14:46:50;4.97;;;1.27;;
47966;SDS011;33733;52.456;13.620;2023-04-15T14:49:17;4.75;;;2.85;;
47966;SDS011;33733;52.456;13.620;2023-04-15T14:51:44;3.90;;;1.40;;